sensor_id;sensor_type;location;lat;lon;timestamp;P1;durP1;ratioP1;P2;durP2;ratioP2
61709;SDS011;47633;51.494;5.386;2023-04-21T00:00:24;5.90;;;4.35;;
61709;SDS011;47633;51.494;5.386;2023-04-21T00:02:49;6.35;;;4.55;;
61709;SDS011;47633;51.494;5.386;2023-04-21T00:05:15;5.20;;;4.30;;
61709;SDS011;47633;51.494;5.386;2023-04-21T00:07:40;6.05;;;4.40;;
61709;SDS011;47633;51.494;5.386;2023-04-21T00:10:08;5.90;;;4.47;;
61709;SDS011;47633;51.494;5.386;2023-04-21T00:12:35;6.07;;;4.35;;
61709;SDS011;47633;51.494;5.386;2023-04-21T00:15:00;5.63;;;4.43;;
61709;SDS011;47633;51.494;5.386;2023-04-21T00:17:26;5.65;;;4.63;;
61709;SDS011;47633;51.494;5.386;2023-04-21T00:19:51;5.65;;;4.55;;
61709;SDS011;47633;51.494;5.386;2023-04-21T00:22:17;5.93;;;4.80;;
61709;SDS011;47633;51.494;5.386;2023-04-21T00:24:43;5.93;;;4.10;;
61709;SDS011;47633;51.494;5.386;2023-04-21T00:27:08;5.95;;;4.88;;
61709;SDS011;47633;51.494;5.386;2023-04-21T00:29:35;5.85;;;4.72;;
61709;SDS011;47633;51.494;5.386;2023-04-21T00:32:00;5.75;;;4.72;;
61709;SDS011;47633;51.494;5.386;2023-04-21T00:34:27;5.88;;;4.30;;
61709;SDS011;47633;51.494;5.386;2023-04-21T00:36:53;6.45;;;4.65;;
61709;SDS011;47633;51.494;5.386;2023-04-21T00:39:18;6.28;;;4.78;;
61709;SDS011;47633;51.494;5.386;2023-04-21T00:41:43;6.15;;;4.43;;
61709;SDS011;47633;51.494;5.386;2023-04-21T00:44:09;7.32;;;4.80;;
61709;SDS011;47633;51.494;5.386;2023-04-21T00:46:35;5.95;;;4.90;;
61709;SDS011;47633;51.494;5.386;2023-04-21T00:49:03;6.63;;;4.80;;
61709;SDS011;47633;51.494;5.386;2023-04-21T00:51:30;6.30;;;5.03;;
61709;SDS011;47633;51.494;5.386;2023-04-21T00:53:57;5.65;;;4.38;;
61709;SDS011;47633;51.494;5.386;2023-04-21T00:56:24;6.03;;;4.70;;
61709;SDS011;47633;51.494;5.386;2023-04-21T00:58:50;6.15;;;5.03;;
61709;SDS011;47633;51.494;5.386;2023-04-21T01:01:16;6.10;;;4.90;;
61709;SDS011;47633;51.494;5.386;2023-04-21T01:03:41;5.93;;;5.13;;
61709;SDS011;47633;51.494;5.386;2023-04-21T01:06:07;6.10;;;4.75;;
61709;SDS011;47633;51.494;5.386;2023-04-21T01:08:33;7.68;;;5.25;;
61709;SDS011;47633;51.494;5.386;2023-04-21T01:10:59;6.05;;;4.90;;
61709;SDS011;47633;51.494;5.386;2023-04-21T01:13:24;5.85;;;4.57;;
61709;SDS011;47633;51.494;5.386;2023-04-21T01:15:50;7.20;;;4.75;;
61709;SDS011;47633;51.494;5.386;2023-04-21T01:18:15;5.80;;;4.95;;
61709;SDS011;47633;51.494;5.386;2023-04-21T01:20:42;6.22;;;5.13;;
61709;SDS011;47633;51.494;5.386;2023-04-21T01:23:08;5.53;;;4.50;;
61709;SDS011;47633;51.494;5.386;2023-04-21T01:25:34;5.95;;;4.97;;
61709;SDS011;47633;51.494;5.386;2023-04-21T01:28:00;6.03;;;4.45;;
61709;SDS011;47633;51.494;5.386;2023-04-21T01:30:25;5.50;;;4.55;;
61709;SDS011;47633;51.494;5.386;2023-04-21T01:32:50;5.55;;;4.63;;
61709;SDS011;47633;51.494;5.386;2023-04-21T01:35:16;7.60;;;5.10;;
61709;SDS011;47633;51.494;5.386;2023-04-21T01:37:41;6.32;;;4.75;;
61709;SDS011;47633;51.494;5.386;2023-04-21T01:40:07;6.22;;;5.18;;
61709;SDS011;47633;51.494;5.386;2023-04-21T01:42:34;6.00;;;4.57;;
61709;SDS011;47633;51.494;5.386;2023-04-21T01:45:02;6.80;;;4.65;;
61709;SDS011;47633;51.494;5.386;2023-04-21T01:47:27;6.07;;;4.65;;
61709;SDS011;47633;51.494;5.386;2023-04-21T01:49:53;5.63;;;4.68;;
61709;SDS011;47633;51.494;5.386;2023-04-21T01:52:18;6.55;;;4.72;;
61709;SDS011;47633;51.494;5.386;2023-04-21T01:54:44;6.57;;;5.00;;
61709;SDS011;47633;51.494;5.386;2023-04-21T01:57:09;6.50;;;4.80;;
61709;SDS011;47633;51.494;5.386;2023-04-21T01:59:35;7.38;;;5.18;;
61709;SDS011;47633;51.494;5.386;2023-04-21T02:02:00;6.20;;;4.88;;
61709;SDS011;47633;51.494;5.386;2023-04-21T02:04:25;6.55;;;4.93;;
61709;SDS011;47633;51.494;5.386;2023-04-21T02:06:51;6.93;;;5.18;;
61709;SDS011;47633;51.494;5.386;2023-04-21T02:09:16;6.15;;;4.53;;
61709;SDS011;47633;51.494;5.386;2023-04-21T02:11:41;6.23;;;5.20;;
61709;SDS011;47633;51.494;5.386;2023-04-21T02:14:07;6.32;;;4.63;;
61709;SDS011;47633;51.494;5.386;2023-04-21T02:16:32;5.88;;;4.63;;
61709;SDS011;47633;51.494;5.386;2023-04-21T02:18:57;7.07;;;4.70;;
61709;SDS011;47633;51.494;5.386;2023-04-21T02:21:23;6.55;;;4.55;;
61709;SDS011;47633;51.494;5.386;2023-04-21T02:23:49;6.30;;;4.65;;
61709;SDS011;47633;51.494;5.386;2023-04-21T02:26:15;6.97;;;4.80;;
61709;SDS011;47633;51.494;5.386;2023-04-21T02:28:41;5.65;;;4.10;;
61709;SDS011;47633;51.494;5.386;2023-04-21T02:31:06;5.82;;;4.63;;
61709;SDS011;47633;51.494;5.386;2023-04-21T02:33:32;7.53;;;4.80;;
61709;SDS011;47633;51.494;5.386;2023-04-21T02:35:57;7.57;;;4.72;;
61709;SDS011;47633;51.494;5.386;2023-04-21T02:38:22;6.35;;;4.82;;
61709;SDS011;47633;51.494;5.386;2023-04-21T02:40:48;5.72;;;4.63;;
61709;SDS011;47633;51.494;5.386;2023-04-21T02:43:14;6.47;;;4.90;;
61709;SDS011;47633;51.494;5.386;2023-04-21T02:45:40;6.30;;;4.63;;
61709;SDS011;47633;51.494;5.386;2023-04-21T02:48:05;6.80;;;4.75;;
61709;SDS011;47633;51.494;5.386;2023-04-21T02:50:31;6.07;;;4.78;;
61709;SDS011;47633;51.494;5.386;2023-04-21T02:52:56;6.07;;;4.88;;
61709;SDS011;47633;51.494;5.386;2023-04-21T02:55:21;6.45;;;4.60;;
61709;SDS011;47633;51.494;5.386;2023-04-21T02:57:47;6.25;;;4.70;;
61709;SDS011;47633;51.494;5.386;2023-04-21T03:00:13;6.22;;;4.70;;
61709;SDS011;47633;51.494;5.386;2023-04-21T03:02:39;5.95;;;4.70;;
61709;SDS011;47633;51.494;5.386;2023-04-21T03:05:05;6.88;;;5.10;;
61709;SDS011;47633;51.494;5.386;2023-04-21T03:07:30;6.57;;;5.30;;
61709;SDS011;47633;51.494;5.386;2023-04-21T03:09:56;6.60;;;4.78;;
61709;SDS011;47633;51.494;5.386;2023-04-21T03:12:21;6.57;;;5.10;;
61709;SDS011;47633;51.494;5.386;2023-04-21T03:14:46;6.30;;;4.97;;
61709;SDS011;47633;51.494;5.386;2023-04-21T03:17:11;7.38;;;5.35;;
61709;SDS011;47633;51.494;5.386;2023-04-21T03:19:37;6.28;;;4.78;;
61709;SDS011;47633;51.494;5.386;2023-04-21T03:22:02;7.40;;;5.00;;
61709;SDS011;47633;51.494;5.386;2023-04-21T03:24:28;6.63;;;5.03;;
61709;SDS011;47633;51.494;5.386;2023-04-21T03:26:53;6.60;;;5.25;;
61709;SDS011;47633;51.494;5.386;2023-04-21T03:29:20;7.43;;;5.25;;
61709;SDS011;47633;51.494;5.386;2023-04-21T03:31:46;7.07;;;5.35;;
61709;SDS011;47633;51.494;5.386;2023-04-21T03:34:11;6.78;;;5.20;;
61709;SDS011;47633;51.494;5.386;2023-04-21T03:36:36;7.20;;;5.13;;
61709;SDS011;47633;51.494;5.386;2023-04-21T03:39:02;7.60;;;5.22;;
61709;SDS011;47633;51.494;5.386;2023-04-21T03:41:28;7.03;;;5.32;;
61709;SDS011;47633;51.494;5.386;2023-04-21T03:43:53;6.78;;;5.47;;
61709;SDS011;47633;51.494;5.386;2023-04-21T03:46:19;6.85;;;5.32;;
61709;SDS011;47633;51.494;5.386;2023-04-21T03:48:45;8.60;;;5.32;;
61709;SDS011;47633;51.494;5.386;2023-04-21T03:51:11;7.25;;;5.50;;
61709;SDS011;47633;51.494;5.386;2023-04-21T03:53:37;7.85;;;6.15;;
61709;SDS011;47633;51.494;5.386;2023-04-21T03:56:02;6.83;;;5.30;;
61709;SDS011;47633;51.494;5.386;2023-04-21T03:58:27;7.07;;;5.78;;
61709;SDS011;47633;51.494;5.386;2023-04-21T04:00:53;7.32;;;5.70;;
61709;SDS011;47633;51.494;5.386;2023-04-21T04:03:18;6.60;;;5.13;;
61709;SDS011;47633;51.494;5.386;2023-04-21T04:05:43;7.83;;;5.93;;
61709;SDS011;47633;51.494;5.386;2023-04-21T04:08:08;8.10;;;6.00;;
61709;SDS011;47633;51.494;5.386;2023-04-21T04:10:34;8.93;;;5.90;;
61709;SDS011;47633;51.494;5.386;2023-04-21T04:12:59;8.00;;;5.47;;
61709;SDS011;47633;51.494;5.386;2023-04-21T04:15:25;7.22;;;5.70;;
61709;SDS011;47633;51.494;5.386;2023-04-21T04:17:51;8.90;;;5.93;;
61709;SDS011;47633;51.494;5.386;2023-04-21T04:20:16;7.57;;;5.88;;
61709;SDS011;47633;51.494;5.386;2023-04-21T04:22:41;7.28;;;5.78;;
61709;SDS011;47633;51.494;5.386;2023-04-21T04:25:07;7.50;;;5.70;;
61709;SDS011;47633;51.494;5.386;2023-04-21T04:27:33;8.13;;;6.45;;
61709;SDS011;47633;51.494;5.386;2023-04-21T04:29:58;7.65;;;6.28;;
61709;SDS011;47633;51.494;5.386;2023-04-21T04:32:24;7.28;;;5.97;;
61709;SDS011;47633;51.494;5.386;2023-04-21T04:34:52;8.60;;;6.30;;
61709;SDS011;47633;51.494;5.386;2023-04-21T04:37:19;7.88;;;5.82;;
61709;SDS011;47633;51.494;5.386;2023-04-21T04:39:45;8.90;;;6.57;;
61709;SDS011;47633;51.494;5.386;2023-04-21T04:42:11;7.60;;;6.28;;
61709;SDS011;47633;51.494;5.386;2023-04-21T04:44:36;8.80;;;6.57;;
61709;SDS011;47633;51.494;5.386;2023-04-21T04:47:02;7.97;;;6.32;;
61709;SDS011;47633;51.494;5.386;2023-04-21T04:49:28;9.30;;;6.45;;
61709;SDS011;47633;51.494;5.386;2023-04-21T04:51:53;9.40;;;6.47;;
61709;SDS011;47633;51.494;5.386;2023-04-21T04:54:18;7.90;;;6.25;;
61709;SDS011;47633;51.494;5.386;2023-04-21T04:56:44;7.93;;;6.22;;
61709;SDS011;47633;51.494;5.386;2023-04-21T04:59:10;7.90;;;6.10;;
61709;SDS011;47633;51.494;5.386;2023-04-21T05:01:35;7.60;;;5.97;;
61709;SDS011;47633;51.494;5.386;2023-04-21T05:04:03;7.63;;;6.40;;
61709;SDS011;47633;51.494;5.386;2023-04-21T05:06:28;7.60;;;6.13;;
61709;SDS011;47633;51.494;5.386;2023-04-21T05:08:53;7.38;;;5.88;;
61709;SDS011;47633;51.494;5.386;2023-04-21T05:11:20;7.70;;;5.68;;
61709;SDS011;47633;51.494;5.386;2023-04-21T05:13:45;7.55;;;5.90;;
61709;SDS011;47633;51.494;5.386;2023-04-21T05:16:10;7.80;;;5.63;;
61709;SDS011;47633;51.494;5.386;2023-04-21T05:18:36;6.22;;;4.47;;
61709;SDS011;47633;51.494;5.386;2023-04-21T05:21:01;6.55;;;4.50;;
61709;SDS011;47633;51.494;5.386;2023-04-21T05:23:27;6.15;;;4.40;;
61709;SDS011;47633;51.494;5.386;2023-04-21T05:25:52;6.70;;;4.45;;
61709;SDS011;47633;51.494;5.386;2023-04-21T05:28:17;7.00;;;4.73;;
61709;SDS011;47633;51.494;5.386;2023-04-21T05:30:43;6.93;;;4.75;;
61709;SDS011;47633;51.494;5.386;2023-04-21T05:33:08;6.70;;;4.63;;
61709;SDS011;47633;51.494;5.386;2023-04-21T05:35:34;6.90;;;4.70;;
61709;SDS011;47633;51.494;5.386;2023-04-21T05:37:59;6.72;;;4.97;;
61709;SDS011;47633;51.494;5.386;2023-04-21T05:40:25;6.53;;;4.57;;
61709;SDS011;47633;51.494;5.386;2023-04-21T05:42:50;6.32;;;4.45;;
61709;SDS011;47633;51.494;5.386;2023-04-21T05:45:15;6.47;;;4.40;;
61709;SDS011;47633;51.494;5.386;2023-04-21T05:47:41;7.32;;;4.93;;
61709;SDS011;47633;51.494;5.386;2023-04-21T05:50:06;6.70;;;4.75;;
61709;SDS011;47633;51.494;5.386;2023-04-21T05:52:32;7.78;;;5.00;;
61709;SDS011;47633;51.494;5.386;2023-04-21T05:54:58;7.15;;;5.05;;
61709;SDS011;47633;51.494;5.386;2023-04-21T05:57:25;6.82;;;4.03;;
61709;SDS011;47633;51.494;5.386;2023-04-21T05:59:50;7.03;;;4.90;;
61709;SDS011;47633;51.494;5.386;2023-04-21T06:02:15;6.63;;;4.90;;
61709;SDS011;47633;51.494;5.386;2023-04-21T06:04:41;7.07;;;5.20;;
61709;SDS011;47633;51.494;5.386;2023-04-21T06:07:07;6.07;;;4.70;;
61709;SDS011;47633;51.494;5.386;2023-04-21T06:09:34;7.45;;;5.18;;
61709;SDS011;47633;51.494;5.386;2023-04-21T06:12:00;7.63;;;5.28;;
61709;SDS011;47633;51.494;5.386;2023-04-21T06:14:26;8.35;;;5.47;;
61709;SDS011;47633;51.494;5.386;2023-04-21T06:16:51;6.95;;;4.85;;
61709;SDS011;47633;51.494;5.386;2023-04-21T06:19:17;6.70;;;5.03;;
61709;SDS011;47633;51.494;5.386;2023-04-21T06:21:42;7.13;;;5.23;;
61709;SDS011;47633;51.494;5.386;2023-04-21T06:24:07;7.78;;;5.28;;
61709;SDS011;47633;51.494;5.386;2023-04-21T06:26:33;7.32;;;5.22;;
61709;SDS011;47633;51.494;5.386;2023-04-21T06:28:58;6.70;;;5.10;;
61709;SDS011;47633;51.494;5.386;2023-04-21T06:31:23;6.97;;;5.20;;
61709;SDS011;47633;51.494;5.386;2023-04-21T06:33:49;8.40;;;5.18;;
61709;SDS011;47633;51.494;5.386;2023-04-21T06:36:14;7.00;;;4.93;;
61709;SDS011;47633;51.494;5.386;2023-04-21T06:38:39;6.80;;;5.05;;
61709;SDS011;47633;51.494;5.386;2023-04-21T06:41:07;7.80;;;5.70;;
61709;SDS011;47633;51.494;5.386;2023-04-21T06:43:32;6.78;;;4.95;;
61709;SDS011;47633;51.494;5.386;2023-04-21T06:45:58;7.55;;;5.13;;
61709;SDS011;47633;51.494;5.386;2023-04-21T06:48:23;6.53;;;4.97;;
61709;SDS011;47633;51.494;5.386;2023-04-21T06:50:48;6.30;;;4.85;;
61709;SDS011;47633;51.494;5.386;2023-04-21T06:53:14;7.35;;;5.45;;
61709;SDS011;47633;51.494;5.386;2023-04-21T06:55:40;6.93;;;4.97;;
61709;SDS011;47633;51.494;5.386;2023-04-21T06:58:06;7.40;;;5.00;;
61709;SDS011;47633;51.494;5.386;2023-04-21T07:00:31;7.73;;;5.10;;
61709;SDS011;47633;51.494;5.386;2023-04-21T07:02:56;8.45;;;5.40;;
61709;SDS011;47633;51.494;5.386;2023-04-21T07:05:22;8.40;;;5.40;;
61709;SDS011;47633;51.494;5.386;2023-04-21T07:07:47;7.63;;;5.18;;
61709;SDS011;47633;51.494;5.386;2023-04-21T07:10:12;7.95;;;5.70;;
61709;SDS011;47633;51.494;5.386;2023-04-21T07:12:43;7.78;;;5.90;;
61709;SDS011;47633;51.494;5.386;2023-04-21T07:15:08;8.20;;;6.38;;
61709;SDS011;47633;51.494;5.386;2023-04-21T07:17:34;8.15;;;6.18;;
61709;SDS011;47633;51.494;5.386;2023-04-21T07:19:59;7.75;;;5.68;;
61709;SDS011;47633;51.494;5.386;2023-04-21T07:22:24;7.85;;;6.32;;
61709;SDS011;47633;51.494;5.386;2023-04-21T07:24:50;8.25;;;5.80;;
61709;SDS011;47633;51.494;5.386;2023-04-21T07:27:15;10.38;;;5.78;;
61709;SDS011;47633;51.494;5.386;2023-04-21T07:29:43;6.80;;;5.43;;
61709;SDS011;47633;51.494;5.386;2023-04-21T07:32:08;7.10;;;5.53;;
61709;SDS011;47633;51.494;5.386;2023-04-21T07:34:33;8.40;;;5.78;;
61709;SDS011;47633;51.494;5.386;2023-04-21T07:36:59;8.85;;;5.75;;
61709;SDS011;47633;51.494;5.386;2023-04-21T07:39:24;7.55;;;5.60;;
61709;SDS011;47633;51.494;5.386;2023-04-21T07:41:50;7.60;;;5.65;;
61709;SDS011;47633;51.494;5.386;2023-04-21T07:44:15;7.25;;;5.57;;
61709;SDS011;47633;51.494;5.386;2023-04-21T07:46:40;8.10;;;5.38;;
61709;SDS011;47633;51.494;5.386;2023-04-21T07:49:06;9.18;;;6.03;;
61709;SDS011;47633;51.494;5.386;2023-04-21T07:51:31;7.93;;;5.82;;
61709;SDS011;47633;51.494;5.386;2023-04-21T07:53:56;10.82;;;4.97;;
61709;SDS011;47633;51.494;5.386;2023-04-21T07:56:22;7.20;;;5.38;;
61709;SDS011;47633;51.494;5.386;2023-04-21T07:58:47;6.60;;;4.85;;
61709;SDS011;47633;51.494;5.386;2023-04-21T08:01:13;9.60;;;5.38;;
61709;SDS011;47633;51.494;5.386;2023-04-21T08:03:38;8.80;;;5.18;;
61709;SDS011;47633;51.494;5.386;2023-04-21T08:06:03;7.32;;;5.43;;
61709;SDS011;47633;51.494;5.386;2023-04-21T08:08:29;7.15;;;4.95;;
61709;SDS011;47633;51.494;5.386;2023-04-21T08:10:54;6.97;;;5.18;;
61709;SDS011;47633;51.494;5.386;2023-04-21T08:13:20;6.97;;;5.25;;
61709;SDS011;47633;51.494;5.386;2023-04-21T08:15:49;8.82;;;5.18;;
61709;SDS011;47633;51.494;5.386;2023-04-21T08:18:14;9.23;;;5.38;;
61709;SDS011;47633;51.494;5.386;2023-04-21T08:20:41;6.65;;;5.00;;
61709;SDS011;47633;51.494;5.386;2023-04-21T08:23:06;7.82;;;5.50;;
61709;SDS011;47633;51.494;5.386;2023-04-21T08:25:31;11.02;;;5.70;;
61709;SDS011;47633;51.494;5.386;2023-04-21T08:27:56;6.78;;;4.43;;
61709;SDS011;47633;51.494;5.386;2023-04-21T08:30:22;9.18;;;4.97;;
61709;SDS011;47633;51.494;5.386;2023-04-21T08:32:47;7.38;;;4.90;;
61709;SDS011;47633;51.494;5.386;2023-04-21T08:35:12;6.77;;;4.87;;
61709;SDS011;47633;51.494;5.386;2023-04-21T08:37:38;9.65;;;5.18;;
61709;SDS011;47633;51.494;5.386;2023-04-21T08:40:04;7.95;;;4.75;;
61709;SDS011;47633;51.494;5.386;2023-04-21T08:42:30;6.97;;;4.70;;
61709;SDS011;47633;51.494;5.386;2023-04-21T08:44:56;7.80;;;4.75;;
61709;SDS011;47633;51.494;5.386;2023-04-21T08:47:21;9.10;;;5.30;;
61709;SDS011;47633;51.494;5.386;2023-04-21T08:49:48;7.25;;;4.90;;
61709;SDS011;47633;51.494;5.386;2023-04-21T08:52:15;8.98;;;4.85;;
61709;SDS011;47633;51.494;5.386;2023-04-21T08:54:41;8.70;;;4.50;;
61709;SDS011;47633;51.494;5.386;2023-04-21T08:57:07;6.43;;;4.28;;
61709;SDS011;47633;51.494;5.386;2023-04-21T08:59:32;6.43;;;4.53;;
61709;SDS011;47633;51.494;5.386;2023-04-21T09:02:13;6.55;;;4.55;;
61709;SDS011;47633;51.494;5.386;2023-04-21T09:04:41;8.02;;;4.78;;
61709;SDS011;47633;51.494;5.386;2023-04-21T09:07:31;8.10;;;4.68;;
61709;SDS011;47633;51.494;5.386;2023-04-21T09:09:58;8.43;;;5.10;;
61709;SDS011;47633;51.494;5.386;2023-04-21T09:12:27;9.70;;;4.47;;
61709;SDS011;47633;51.494;5.386;2023-04-21T09:14:53;6.85;;;4.00;;
61709;SDS011;47633;51.494;5.386;2023-04-21T09:17:20;9.30;;;4.32;;
61709;SDS011;47633;51.494;5.386;2023-04-21T09:19:47;7.60;;;4.10;;
61709;SDS011;47633;51.494;5.386;2023-04-21T09:22:16;6.20;;;4.20;;
61709;SDS011;47633;51.494;5.386;2023-04-21T09:24:45;6.47;;;4.20;;
61709;SDS011;47633;51.494;5.386;2023-04-21T09:27:13;8.18;;;4.28;;
61709;SDS011;47633;51.494;5.386;2023-04-21T09:29:44;5.60;;;3.75;;
61709;SDS011;47633;51.494;5.386;2023-04-21T09:32:11;6.22;;;4.28;;
61709;SDS011;47633;51.494;5.386;2023-04-21T09:34:40;5.93;;;3.75;;
61709;SDS011;47633;51.494;5.386;2023-04-21T09:37:07;5.68;;;3.72;;
61709;SDS011;47633;51.494;5.386;2023-04-21T09:39:35;6.13;;;4.13;;
61709;SDS011;47633;51.494;5.386;2023-04-21T09:42:01;7.13;;;3.70;;
61709;SDS011;47633;51.494;5.386;2023-04-21T09:44:27;6.60;;;3.83;;
61709;SDS011;47633;51.494;5.386;2023-04-21T09:47:01;8.75;;;4.60;;
61709;SDS011;47633;51.494;5.386;2023-04-21T09:49:28;5.70;;;3.67;;
61709;SDS011;47633;51.494;5.386;2023-04-21T09:51:56;9.13;;;4.03;;
61709;SDS011;47633;51.494;5.386;2023-04-21T09:54:25;5.65;;;3.63;;
61709;SDS011;47633;51.494;5.386;2023-04-21T09:56:55;6.18;;;3.80;;
61709;SDS011;47633;51.494;5.386;2023-04-21T09:59:24;6.65;;;3.50;;
61709;SDS011;47633;51.494;5.386;2023-04-21T10:01:51;5.30;;;3.63;;
61709;SDS011;47633;51.494;5.386;2023-04-21T10:04:17;6.25;;;3.30;;
61709;SDS011;47633;51.494;5.386;2023-04-21T10:06:44;6.93;;;3.72;;
61709;SDS011;47633;51.494;5.386;2023-04-21T10:09:11;5.45;;;3.20;;
61709;SDS011;47633;51.494;5.386;2023-04-21T10:11:38;6.28;;;3.50;;
61709;SDS011;47633;51.494;5.386;2023-04-21T10:14:04;6.28;;;3.42;;
61709;SDS011;47633;51.494;5.386;2023-04-21T10:16:30;6.10;;;3.30;;
61709;SDS011;47633;51.494;5.386;2023-04-21T10:18:59;5.13;;;3.30;;
61709;SDS011;47633;51.494;5.386;2023-04-21T10:21:25;5.47;;;3.23;;
61709;SDS011;47633;51.494;5.386;2023-04-21T10:23:50;5.35;;;3.40;;
61709;SDS011;47633;51.494;5.386;2023-04-21T10:28:54;6.95;;;3.70;;
61709;SDS011;47633;51.494;5.386;2023-04-21T10:37:22;6.35;;;3.22;;
61709;SDS011;47633;51.494;5.386;2023-04-21T10:41:56;6.85;;;3.70;;
61709;SDS011;47633;51.494;5.386;2023-04-21T10:44:22;6.63;;;3.38;;
61709;SDS011;47633;51.494;5.386;2023-04-21T10:46:52;5.40;;;3.38;;
61709;SDS011;47633;51.494;5.386;2023-04-21T10:49:22;7.35;;;3.20;;
61709;SDS011;47633;51.494;5.386;2023-04-21T10:57:06;6.70;;;3.80;;
61709;SDS011;47633;51.494;5.386;2023-04-21T10:59:33;7.95;;;4.13;;
61709;SDS011;47633;51.494;5.386;2023-04-21T11:01:59;8.00;;;4.30;;
61709;SDS011;47633;51.494;5.386;2023-04-21T11:04:24;8.60;;;4.25;;
61709;SDS011;47633;51.494;5.386;2023-04-21T11:09:35;11.18;;;3.70;;
61709;SDS011;47633;51.494;5.386;2023-04-21T11:12:06;10.32;;;3.85;;
61709;SDS011;47633;51.494;5.386;2023-04-21T11:14:45;6.30;;;3.08;;
61709;SDS011;47633;51.494;5.386;2023-04-21T11:17:15;6.13;;;3.67;;
61709;SDS011;47633;51.494;5.386;2023-04-21T11:19:45;6.53;;;4.45;;
61709;SDS011;47633;51.494;5.386;2023-04-21T11:22:21;8.07;;;4.05;;
61709;SDS011;47633;51.494;5.386;2023-04-21T11:24:48;10.07;;;4.30;;
61709;SDS011;47633;51.494;5.386;2023-04-21T11:27:16;6.07;;;4.00;;
61709;SDS011;47633;51.494;5.386;2023-04-21T11:29:45;9.68;;;4.43;;
61709;SDS011;47633;51.494;5.386;2023-04-21T11:32:10;7.72;;;3.58;;
61709;SDS011;47633;51.494;5.386;2023-04-21T11:34:37;6.60;;;3.53;;
61709;SDS011;47633;51.494;5.386;2023-04-21T11:37:03;8.05;;;3.40;;
61709;SDS011;47633;51.494;5.386;2023-04-21T11:39:28;6.88;;;3.65;;
61709;SDS011;47633;51.494;5.386;2023-04-21T11:41:54;10.13;;;4.05;;
61709;SDS011;47633;51.494;5.386;2023-04-21T11:44:36;5.82;;;3.25;;
61709;SDS011;47633;51.494;5.386;2023-04-21T11:47:19;6.28;;;3.45;;
61709;SDS011;47633;51.494;5.386;2023-04-21T11:50:07;5.70;;;3.47;;
61709;SDS011;47633;51.494;5.386;2023-04-21T11:52:33;5.90;;;3.65;;
61709;SDS011;47633;51.494;5.386;2023-04-21T11:55:02;5.30;;;3.50;;
61709;SDS011;47633;51.494;5.386;2023-04-21T11:57:28;5.88;;;3.40;;
61709;SDS011;47633;51.494;5.386;2023-04-21T11:59:58;5.65;;;3.17;;
61709;SDS011;47633;51.494;5.386;2023-04-21T12:02:25;4.85;;;3.45;;
61709;SDS011;47633;51.494;5.386;2023-04-21T12:05:33;6.75;;;3.38;;
61709;SDS011;47633;51.494;5.386;2023-04-21T12:07:44;6.40;;;3.58;;
61709;SDS011;47633;51.494;5.386;2023-04-21T12:10:16;6.25;;;3.33;;
61709;SDS011;47633;51.494;5.386;2023-04-21T12:12:43;6.60;;;3.53;;
61709;SDS011;47633;51.494;5.386;2023-04-21T12:15:10;7.18;;;3.55;;
61709;SDS011;47633;51.494;5.386;2023-04-21T12:17:43;5.95;;;3.83;;
61709;SDS011;47633;51.494;5.386;2023-04-21T12:20:16;7.55;;;3.90;;
61709;SDS011;47633;51.494;5.386;2023-04-21T12:22:43;6.97;;;4.10;;
61709;SDS011;47633;51.494;5.386;2023-04-21T12:25:09;5.65;;;3.95;;
61709;SDS011;47633;51.494;5.386;2023-04-21T12:27:34;6.72;;;3.83;;
61709;SDS011;47633;51.494;5.386;2023-04-21T12:30:00;7.55;;;3.90;;
61709;SDS011;47633;51.494;5.386;2023-04-21T12:32:26;5.80;;;3.60;;
61709;SDS011;47633;51.494;5.386;2023-04-21T12:34:51;7.05;;;4.03;;
61709;SDS011;47633;51.494;5.386;2023-04-21T12:37:17;6.20;;;3.88;;
61709;SDS011;47633;51.494;5.386;2023-04-21T12:39:43;5.60;;;3.90;;
61709;SDS011;47633;51.494;5.386;2023-04-21T12:42:08;8.05;;;4.60;;
61709;SDS011;47633;51.494;5.386;2023-04-21T12:44:33;6.60;;;3.97;;
61709;SDS011;47633;51.494;5.386;2023-04-21T12:46:59;5.35;;;3.55;;
61709;SDS011;47633;51.494;5.386;2023-04-21T12:49:24;7.68;;;3.42;;
61709;SDS011;47633;51.494;5.386;2023-04-21T12:51:50;7.47;;;3.80;;
61709;SDS011;47633;51.494;5.386;2023-04-21T12:54:15;7.28;;;3.78;;
61709;SDS011;47633;51.494;5.386;2023-04-21T12:56:41;5.28;;;3.60;;
61709;SDS011;47633;51.494;5.386;2023-04-21T12:59:07;6.88;;;3.60;;
61709;SDS011;47633;51.494;5.386;2023-04-21T13:01:34;6.22;;;3.53;;
61709;SDS011;47633;51.494;5.386;2023-04-21T13:04:00;5.88;;;3.63;;
61709;SDS011;47633;51.494;5.386;2023-04-21T13:06:26;5.30;;;3.47;;
61709;SDS011;47633;51.494;5.386;2023-04-21T13:08:52;7.07;;;3.85;;
61709;SDS011;47633;51.494;5.386;2023-04-21T13:11:17;4.85;;;3.38;;
61709;SDS011;47633;51.494;5.386;2023-04-21T13:13:43;5.43;;;3.42;;
61709;SDS011;47633;51.494;5.386;2023-04-21T13:16:08;6.43;;;3.93;;
61709;SDS011;47633;51.494;5.386;2023-04-21T13:18:33;6.00;;;3.47;;
61709;SDS011;47633;51.494;5.386;2023-04-21T13:20:59;5.32;;;3.50;;
61709;SDS011;47633;51.494;5.386;2023-04-21T13:23:25;5.63;;;3.30;;
61709;SDS011;47633;51.494;5.386;2023-04-21T13:25:51;6.05;;;3.70;;
61709;SDS011;47633;51.494;5.386;2023-04-21T13:28:16;5.50;;;4.00;;
61709;SDS011;47633;51.494;5.386;2023-04-21T13:30:42;5.40;;;3.75;;
61709;SDS011;47633;51.494;5.386;2023-04-21T13:33:08;6.25;;;3.58;;
61709;SDS011;47633;51.494;5.386;2023-04-21T13:35:34;5.47;;;3.55;;
61709;SDS011;47633;51.494;5.386;2023-04-21T13:38:00;5.97;;;3.50;;
61709;SDS011;47633;51.494;5.386;2023-04-21T13:40:25;6.13;;;3.13;;
61709;SDS011;47633;51.494;5.386;2023-04-21T13:42:50;6.30;;;3.75;;
61709;SDS011;47633;51.494;5.386;2023-04-21T13:45:16;7.00;;;3.70;;
61709;SDS011;47633;51.494;5.386;2023-04-21T13:47:41;5.40;;;3.65;;
61709;SDS011;47633;51.494;5.386;2023-04-21T13:50:07;9.05;;;3.80;;
61709;SDS011;47633;51.494;5.386;2023-04-21T13:52:33;7.60;;;4.05;;
61709;SDS011;47633;51.494;5.386;2023-04-21T13:55:00;5.90;;;3.45;;
61709;SDS011;47633;51.494;5.386;2023-04-21T13:57:26;5.88;;;3.60;;
61709;SDS011;47633;51.494;5.386;2023-04-21T13:59:51;6.70;;;3.78;;
61709;SDS011;47633;51.494;5.386;2023-04-21T14:02:18;6.55;;;4.15;;
61709;SDS011;47633;51.494;5.386;2023-04-21T14:04:45;5.30;;;3.97;;
61709;SDS011;47633;51.494;5.386;2023-04-21T14:07:10;6.88;;;3.47;;
61709;SDS011;47633;51.494;5.386;2023-04-21T14:09:38;5.93;;;3.72;;
61709;SDS011;47633;51.494;5.386;2023-04-21T14:12:04;6.72;;;3.90;;
61709;SDS011;47633;51.494;5.386;2023-04-21T14:14:29;7.18;;;3.65;;
61709;SDS011;47633;51.494;5.386;2023-04-21T14:16:54;7.47;;;4.07;;
61709;SDS011;47633;51.494;5.386;2023-04-21T14:19:20;7.30;;;3.72;;
61709;SDS011;47633;51.494;5.386;2023-04-21T14:21:45;9.32;;;3.80;;
61709;SDS011;47633;51.494;5.386;2023-04-21T14:24:11;6.10;;;4.20;;
61709;SDS011;47633;51.494;5.386;2023-04-21T14:26:36;7.28;;;3.45;;
61709;SDS011;47633;51.494;5.386;2023-04-21T14:29:01;5.72;;;3.70;;
61709;SDS011;47633;51.494;5.386;2023-04-21T14:31:27;6.15;;;3.65;;
61709;SDS011;47633;51.494;5.386;2023-04-21T14:33:53;5.80;;;4.00;;
61709;SDS011;47633;51.494;5.386;2023-04-21T14:36:18;6.30;;;4.38;;
61709;SDS011;47633;51.494;5.386;2023-04-21T14:38:44;8.00;;;4.13;;
61709;SDS011;47633;51.494;5.386;2023-04-21T14:41:09;6.97;;;3.70;;
61709;SDS011;47633;51.494;5.386;2023-04-21T14:43:34;6.70;;;4.10;;
61709;SDS011;47633;51.494;5.386;2023-04-21T14:46:00;5.28;;;3.60;;
61709;SDS011;47633;51.494;5.386;2023-04-21T14:48:25;9.27;;;4.10;;
61709;SDS011;47633;51.494;5.386;2023-04-21T14:50:51;7.88;;;4.45;;
61709;SDS011;47633;51.494;5.386;2023-04-21T14:53:16;6.70;;;4.20;;
61709;SDS011;47633;51.494;5.386;2023-04-21T14:55:41;6.50;;;4.18;;
61709;SDS011;47633;51.494;5.386;2023-04-21T14:58:07;7.13;;;4.13;;
61709;SDS011;47633;51.494;5.386;2023-04-21T15:00:32;5.88;;;4.10;;